Sea Robin — WDG6181 — position and weather

sailwx.info

Track history (hours):
 
Tides and Currents Weather Stations Pressure Air Temp Water Temp Dewpoint Dewpoint Depression Visibility Wind Speed Wind Dir Waves Ship Positions

Sea Robin

Owner: Kirby Offshore Marine, LLC, Staten Island, NY. More information available from US FCC via Universal Licensing System and Coast Guard Vessel Documentation Center.

Last reported at 2017-Sep-20 01:59 UTC. Time now 2017-Sep-20 02:05 UTC.
Position N 36°57' W 076°22'.

Length 32 m; draft 5 m.

Type: Tow > 200 m length. MMSI: 366836950.

Date/timePositionNaut miles runAvg speedWind from/ knotsBaromVisibWave heightAir tempDewpointWater temp
2017-Sep-20 01:59N 36°57' W 076°22'1 1.3
2017-Sep-20 01:14N 36°57' W 076°21'0 0.3
2017-Sep-20 00:59N 36°58' W 076°21'8 4.1
2017-Sep-19 23:02N 37°00' W 076°11'0 4.1
2017-Sep-19 22:59N 37°00' W 076°11'2 4.1
2017-Sep-19 22:30N 37°01' W 076°09'65 5.8
2017-Sep-19 11:19N 38°06' W 076°15'2 6.1
2017-Sep-19 10:59N 38°08' W 076°16'8 5.4
2017-Sep-19 09:31N 38°15' W 076°18'0 4.4
2017-Sep-19 09:30N 38°15' W 076°19'2 4.4
2017-Sep-19 08:58N 38°18' W 076°19'2 4.1
2017-Sep-19 08:29N 38°19' W 076°20'2 3.9
2017-Sep-19 07:57N 38°22' W 076°21'2 3.8
2017-Sep-19 07:29N 38°23' W 076°21'1 2.8
2017-Sep-19 06:57N 38°25' W 076°22'2 3.7
2017-Sep-19 06:30N 38°23' W 076°21'2 3.7
2017-Sep-19 05:57N 38°21' W 076°21'2 3.8
2017-Sep-19 05:27N 38°19' W 076°20'2 3.6
2017-Sep-19 04:59N 38°18' W 076°19'2 3.5
2017-Sep-19 04:30N 38°16' W 076°19'2 3.6
2017-Sep-19 04:00N 38°14' W 076°18'2 3.6
2017-Sep-19 03:27N 38°12' W 076°17'4 3.6
2017-Sep-19 02:19N 38°08' W 076°16'1 3.4
2017-Sep-19 02:00N 38°07' W 076°16'2 3.4
2017-Sep-19 01:28N 38°06' W 076°15'2 3.2
2017-Sep-19 00:58N 38°04' W 076°15'2 3.1
2017-Sep-19 00:26N 38°02' W 076°14'1 3.2
2017-Sep-18 23:59N 38°01' W 076°14'36 5.7
2017-Sep-18 17:43N 38°35' W 076°27'2 5.8
2017-Sep-18 17:18N 38°38' W 076°27'2 5.8
2017-Sep-18 16:58N 38°39' W 076°27'3 5.9
2017-Sep-18 16:30N 38°42' W 076°28'8 5.1
2017-Sep-18 14:56N 38°50' W 076°26'4 7.6
2017-Sep-18 14:28N 38°53' W 076°24'4 7.9
2017-Sep-18 13:59N 38°57' W 076°24'4 7.8
2017-Sep-18 13:30N 39°01' W 076°22'4 7.3
2017-Sep-18 13:00N 39°04' W 076°21'3 6.6
2017-Sep-18 12:30N 39°07' W 076°19'3 6.2
2017-Sep-18 12:00N 39°10' W 076°18'3 6.2
2017-Sep-18 11:27N 39°13' W 076°15'2 5.6
2017-Sep-18 11:00N 39°15' W 076°14'3 5.4
2017-Sep-18 10:30N 39°18' W 076°13'2 5.0
2017-Sep-18 10:00N 39°20' W 076°12'2 4.8
2017-Sep-18 09:30N 39°21' W 076°09'2 5.0
2017-Sep-18 09:00N 39°23' W 076°06'3 5.3
2017-Sep-18 08:30N 39°24' W 076°03'3 5.7
2017-Sep-18 08:00N 39°26' W 076°01'3 6.2
2017-Sep-18 07:30N 39°28' W 075°58'3 6.6
2017-Sep-18 07:00N 39°30' W 075°55'4 7.1
2017-Sep-18 06:30N 39°32' W 075°51'4 7.4
2017-Sep-18 06:00N 39°32' W 075°46'4 7.7
2017-Sep-18 05:30N 39°33' W 075°41'4 7.6
2017-Sep-18 05:00N 39°33' W 075°36'3 5.2
2017-Sep-18 04:30N 39°35' W 075°33'3 6.2
2017-Sep-18 04:01N 39°38' W 075°34'3 6.0
2017-Sep-18 03:30N 39°40' W 075°32'3 5.4
2017-Sep-18 03:01N 39°43' W 075°31'3 5.2
2017-Sep-18 02:30N 39°45' W 075°29'2 4.6
2017-Sep-18 02:00N 39°47' W 075°28'2 4.7
2017-Sep-18 01:30N 39°48' W 075°25'2 4.6
2017-Sep-18 01:00N 39°50' W 075°22'2 4.0
2017-Sep-18 00:30N 39°51' W 075°20'2 4.6
2017-Sep-18 00:00N 39°51' W 075°17'3 5.1
2017-Sep-17 23:30N 39°52' W 075°14'3 6.5
2017-Sep-17 23:00N 39°53' W 075°10'3 5.9
2017-Sep-17 22:30N 39°55' W 075°08'3 6.7
2017-Sep-17 22:00N 39°58' W 075°06'3 5.2
2017-Sep-17 21:31N 39°60' W 075°04'0 0.1
2017-Sep-17 21:00N 40°00' W 075°04'0 0.0
2017-Sep-17 20:30N 40°00' W 075°04'0 0.0
2017-Sep-17 20:00N 40°00' W 075°04'0 0.0
2017-Sep-17 19:28N 40°00' W 075°04'0 0.0
2017-Sep-17 18:58N 40°00' W 075°04'0 0.0
2017-Sep-17 18:28N 40°00' W 075°04'0 0.0
2017-Sep-17 17:58N 40°00' W 075°04'0 0.0
2017-Sep-17 17:28N 40°00' W 075°04'0 0.0
2017-Sep-17 16:58N 40°00' W 075°04'0 0.0
2017-Sep-17 16:28N 40°00' W 075°04'0 0.0
2017-Sep-17 15:58N 40°00' W 075°04'0 0.0
2017-Sep-17 15:28N 40°00' W 075°04'0 0.0
2017-Sep-17 14:58N 40°00' W 075°04'0 0.0
2017-Sep-17 14:28N 40°00' W 075°04'0 0.0
2017-Sep-17 13:58N 40°00' W 075°04'0 0.0
2017-Sep-17 13:28N 40°00' W 075°04'0 0.0
2017-Sep-17 12:58N 40°00' W 075°04'0 0.0
2017-Sep-17 12:28N 40°00' W 075°04'0 0.0
2017-Sep-17 11:58N 40°00' W 075°04'0 0.0
2017-Sep-17 11:28N 40°00' W 075°04'0 0.0
2017-Sep-17 10:58N 40°00' W 075°04'0 0.0
2017-Sep-17 10:28N 40°00' W 075°04'0 0.0
2017-Sep-17 09:58N 40°00' W 075°04'0 0.0
2017-Sep-17 09:28N 40°00' W 075°04'0 0.0
2017-Sep-17 08:58N 40°00' W 075°04'0 0.0
2017-Sep-17 08:28N 40°00' W 075°04'0 0.0
2017-Sep-17 07:58N 40°00' W 075°04'0 0.0
2017-Sep-17 07:28N 40°00' W 075°04'0 0.0
2017-Sep-17 06:58N 40°00' W 075°04'0 0.0
2017-Sep-17 06:28N 40°00' W 075°04'0 0.0
2017-Sep-17 05:58N 40°00' W 075°04'0 0.0
2017-Sep-17 05:28N 40°00' W 075°04'0 0.0
2017-Sep-17 04:58N 40°00' W 075°04'0 0.0
2017-Sep-16 22:52N 40°00' W 075°04'0 0.0
2017-Sep-16 22:28N 40°00' W 075°04'0 0.0
2017-Sep-16 21:58N 40°00' W 075°04'0 0.0
2017-Sep-16 21:28N 40°00' W 075°04'0 0.0
2017-Sep-16 20:58N 40°00' W 075°04'0 0.0
2017-Sep-16 20:28N 40°00' W 075°04'0 0.0
2017-Sep-16 19:58N 40°00' W 075°04'0 0.0
2017-Sep-16 19:28N 40°00' W 075°04'0 0.0
2017-Sep-16 18:58N 40°00' W 075°04'0 0.0
2017-Sep-16 18:28N 40°00' W 075°04'0 0.0
2017-Sep-16 17:58N 40°00' W 075°04'0 0.0
2017-Sep-16 17:28N 40°00' W 075°04'0 0.0
2017-Sep-16 16:58N 40°00' W 075°04'0 0.0
2017-Sep-16 16:28N 40°00' W 075°04'0 0.0
2017-Sep-16 15:58N 40°00' W 075°04'0 0.0
2017-Sep-16 15:28N 40°00' W 075°04'0 0.0
2017-Sep-16 14:58N 40°00' W 075°04'0 0.0
2017-Sep-16 14:28N 40°00' W 075°04'0 0.0
2017-Sep-16 13:58N 40°00' W 075°04'0 0.0
2017-Sep-16 13:28N 40°00' W 075°04'0 0.0
2017-Sep-16 12:58N 40°00' W 075°04'0 0.0
2017-Sep-16 12:28N 40°00' W 075°04'0 0.0
2017-Sep-16 11:55N 40°00' W 075°04'0 0.0
2017-Sep-16 11:28N 40°00' W 075°04'0 0.0
2017-Sep-16 10:58N 40°00' W 075°04'0 0.0
2017-Sep-16 10:28N 40°00' W 075°04'0 0.0
2017-Sep-16 09:58N 40°00' W 075°04'0 0.0
2017-Sep-16 09:28N 40°00' W 075°04'0 0.0
2017-Sep-16 08:58N 40°00' W 075°04'0 0.0
2017-Sep-16 08:25N 40°00' W 075°04'0 0.0
2017-Sep-16 07:58N 40°00' W 075°04'0 0.0
2017-Sep-16 07:28N 40°00' W 075°04'0 0.0
2017-Sep-16 06:58N 40°00' W 075°04'0 0.0
2017-Sep-16 06:28N 40°00' W 075°04'0 0.0
2017-Sep-16 05:58N 40°00' W 075°04'0 0.0
2017-Sep-16 05:28N 40°00' W 075°04'0 0.0
2017-Sep-16 04:58N 40°00' W 075°04'0 0.0
2017-Sep-16 04:28N 40°00' W 075°04'0 0.0
2017-Sep-16 03:55N 40°00' W 075°04'0 0.0
2017-Sep-16 03:28N 40°00' W 075°04'0 0.0
2017-Sep-16 02:58N 40°00' W 075°04'0 0.0
2017-Sep-16 02:28N 40°00' W 075°04'0 0.0
2017-Sep-16 01:58N 40°00' W 075°04'0 0.0
2017-Sep-16 01:28N 40°00' W 075°04'0 0.0
2017-Sep-16 00:58N 40°00' W 075°04'0 0.0
2017-Sep-16 00:28N 40°00' W 075°04'0 0.0
2017-Sep-15 23:58N 40°00' W 075°04'0 0.0
2017-Sep-15 23:28N 40°00' W 075°04'0 0.0
2017-Sep-15 22:58N 40°00' W 075°04'0 0.0
2017-Sep-15 22:28N 40°00' W 075°04'0 0.0
2017-Sep-15 21:58N 40°00' W 075°04'0 0.0
2017-Sep-15 21:28N 40°00' W 075°04'0 0.0
2017-Sep-15 20:58N 40°00' W 075°04'0 0.0
2017-Sep-15 20:28N 40°00' W 075°04'0 0.0
2017-Sep-15 19:58N 40°00' W 075°04'0 0.0
2017-Sep-15 19:28N 40°00' W 075°04'0 0.0
2017-Sep-15 18:58N 40°00' W 075°04'0 0.0
2017-Sep-15 18:28N 40°00' W 075°04'0 0.0
2017-Sep-15 17:58N 40°00' W 075°04'0 0.0
2017-Sep-15 17:28N 40°00' W 075°04'0 0.0
2017-Sep-15 16:58N 40°00' W 075°04'0 0.0
2017-Sep-15 16:28N 40°00' W 075°04'0 0.0
2017-Sep-15 15:58N 40°00' W 075°04'0 0.0
2017-Sep-15 15:28N 40°00' W 075°04'0 0.0
2017-Sep-15 14:58N 40°00' W 075°04'0 0.0
2017-Sep-15 14:28N 40°00' W 075°04'0 0.0
2017-Sep-15 13:58N 40°00' W 075°04'0 0.0
2017-Sep-15 13:28N 40°00' W 075°04'0 0.0
2017-Sep-14 12:24N 40°00' W 075°04'0 0.0
2017-Sep-14 12:00N 40°00' W 075°04'0 0.0
2017-Sep-14 11:30N 40°00' W 075°04'0 0.0
2017-Sep-14 11:00N 40°00' W 075°04'0 0.0
2017-Sep-14 10:30N 40°00' W 075°04'0 0.0
2017-Sep-14 10:00N 40°00' W 075°04'0 0.0
2017-Sep-14 09:30N 40°00' W 075°04'0 0.0
2017-Sep-14 09:00N 40°00' W 075°04'0 0.0
2017-Sep-14 08:30N 40°00' W 075°04'0 0.0
2017-Sep-14 08:00N 40°00' W 075°04'0 0.0
2017-Sep-14 07:30N 40°00' W 075°04'0 0.0
2017-Sep-14 07:00N 40°00' W 075°04'0 0.0
2017-Sep-14 06:30N 40°00' W 075°04'0 0.0
2017-Sep-14 06:00N 40°00' W 075°04'0 0.0
2017-Sep-14 05:30N 40°00' W 075°04'0 0.0
2017-Sep-14 05:00N 40°00' W 075°04'0 0.0
2017-Sep-14 04:30N 40°00' W 075°04'0 0.0
2017-Sep-14 04:00N 40°00' W 075°04'0 0.0
2017-Sep-14 03:30N 40°00' W 075°04'0 0.0
2017-Sep-14 03:00N 40°00' W 075°04'0 0.0
2017-Sep-14 02:30N 40°00' W 075°04'0 0.0
2017-Sep-14 02:00N 40°00' W 075°04'0 0.0
2017-Sep-14 01:30N 40°00' W 075°04'0 0.0
2017-Sep-14 01:00N 40°00' W 075°04'0 0.0
2017-Sep-14 00:30N 40°00' W 075°04'0 0.0
2017-Sep-14 00:00N 40°00' W 075°04'0 0.0
2017-Sep-13 23:30N 40°00' W 075°04'0 0.0
2017-Sep-13 23:00N 40°00' W 075°04'0 0.0
2017-Sep-13 22:30N 40°00' W 075°04'0 0.0
2017-Sep-13 22:00N 40°00' W 075°04'0 0.0
2017-Sep-13 21:30N 40°00' W 075°04'0 0.0
2017-Sep-13 21:00N 40°00' W 075°04'0 0.0
2017-Sep-13 20:30N 40°00' W 075°04'0 0.0
2017-Sep-13 20:00N 40°00' W 075°04'0 0.0
2017-Sep-13 19:30N 40°00' W 075°04'0 0.0
2017-Sep-13 18:54N 40°00' W 075°04'0 0.0
2017-Sep-13 18:30N 40°00' W 075°04'0 0.0
2017-Sep-13 18:00N 40°00' W 075°04'0 0.0
2017-Sep-13 17:30N 40°00' W 075°04'0 0.0
2017-Sep-13 17:00N 40°00' W 075°04'0 0.0
2017-Sep-13 16:30N 40°00' W 075°04'0 0.0
2017-Sep-13 16:00N 40°00' W 075°04'0 0.0
2017-Sep-13 15:30N 40°00' W 075°04'0 0.0
2017-Sep-13 15:00N 40°00' W 075°04'0 0.0
2017-Sep-13 14:31N 40°00' W 075°04'0 0.0
2017-Sep-13 14:00N 40°00' W 075°04'0 0.0
2017-Sep-13 13:30N 40°00' W 075°04'0 0.0
2017-Sep-13 13:00N 40°00' W 075°04'0 0.0
2017-Sep-13 12:31N 40°00' W 075°04'0 0.0
2017-Sep-13 12:00N 40°00' W 075°04'0 0.0
2017-Sep-13 11:30N 40°00' W 075°04'0 0.0
2017-Sep-13 11:00N 40°00' W 075°04'0 0.0
2017-Sep-13 10:31N 40°00' W 075°04'0 0.0
2017-Sep-13 10:01N 40°00' W 075°04'0 0.0
2017-Sep-13 09:30N 40°00' W 075°04'0 0.0
2017-Sep-13 09:00N 40°00' W 075°04'0 0.0
2017-Sep-13 08:31N 40°00' W 075°04'0 0.0
2017-Sep-13 08:00N 40°00' W 075°04'0 0.0
2017-Sep-13 07:31N 40°00' W 075°04'0 0.0
2017-Sep-13 07:01N 40°00' W 075°04'0 0.0
2017-Sep-13 06:31N 40°00' W 075°04'0 0.0
2017-Sep-13 06:00N 40°00' W 075°04'0 0.0
2017-Sep-13 05:30N 40°00' W 075°04'0 0.0
2017-Sep-13 05:01N 40°00' W 075°04'0 0.0
2017-Sep-13 04:30N 40°00' W 075°04'0 0.0
2017-Sep-13 04:00N 40°00' W 075°04'0 0.0
2017-Sep-13 03:30N 40°00' W 075°04'0 0.0
2017-Sep-13 03:00N 40°00' W 075°04'0 0.0
2017-Sep-13 02:30N 40°00' W 075°04'0 0.0
2017-Sep-13 02:00N 40°00' W 075°04'0 0.0
2017-Sep-13 01:31N 40°00' W 075°04'0 0.0
2017-Sep-13 01:00N 40°00' W 075°04'0 0.0
2017-Sep-13 00:30N 40°00' W 075°04'0 0.0
2017-Sep-13 00:00N 40°00' W 075°04'0 0.0
2017-Sep-12 23:30N 40°00' W 075°04'0 0.0
2017-Sep-12 23:01N 40°00' W 075°04'0 0.0
2017-Sep-12 22:31N 40°00' W 075°04'0 0.0
2017-Sep-12 22:00N 40°00' W 075°04'0 0.0
2017-Sep-12 21:31N 40°00' W 075°04'0 0.0
2017-Sep-12 21:00N 40°00' W 075°04'0 0.0
2017-Sep-12 20:31N 40°00' W 075°04'0 0.0
2017-Sep-12 20:00N 40°00' W 075°04'0 0.0
2017-Sep-12 19:31N 40°00' W 075°04'0 0.0
2017-Sep-12 19:01N 40°00' W 075°04'0 0.0
2017-Sep-12 18:31N 40°00' W 075°04'0 0.0
2017-Sep-12 18:01N 40°00' W 075°04'0 0.0
2017-Sep-12 17:31N 40°00' W 075°04'4 7.4
2017-Sep-12 17:00N 39°58' W 075°08'4 9.0
2017-Sep-12 16:30N 39°53' W 075°08'2 3.9
2017-Sep-12 16:01N 39°53' W 075°11'1 1.3
2017-Sep-12 15:30N 39°53' W 075°12'0 0.0
2017-Sep-12 15:00N 39°53' W 075°12'0 0.0
2017-Sep-12 14:31N 39°53' W 075°12'0 0.0
2017-Sep-12 14:01N 39°53' W 075°12'0 0.0
2017-Sep-12 13:30N 39°53' W 075°12'0 0.0
2017-Sep-12 13:01N 39°53' W 075°12'0 0.0
2017-Sep-12 12:30N 39°53' W 075°12'0 0.0
2017-Sep-12 09:15N 39°53' W 075°12'0 0.1
2017-Sep-12 09:00N 39°53' W 075°12'3 5.6
2017-Sep-12 08:30N 39°54' W 075°08'4 8.2
2017-Sep-12 08:00N 39°58' W 075°07'3 6.7
2017-Sep-12 07:30N 40°00' W 075°04'0 0.0
2017-Sep-12 07:00N 40°00' W 075°04'0 0.0
2017-Sep-12 06:30N 40°00' W 075°04'0 0.0
2017-Sep-12 06:00N 40°00' W 075°04'0 0.0
2017-Sep-12 05:30N 40°00' W 075°04'0 0.0
2017-Sep-12 05:00N 40°00' W 075°04'0 0.0
2017-Sep-12 04:30N 40°00' W 075°04'0 0.0
2017-Sep-12 04:00N 40°00' W 075°04'0 0.0
2017-Sep-12 03:31N 40°00' W 075°04'0 0.0
2017-Sep-12 03:01N 40°00' W 075°04'0 0.0
2017-Sep-12 02:31N 40°00' W 075°04'0 0.0
2017-Sep-12 02:00N 40°00' W 075°04'0 0.0
2017-Sep-12 01:31N 40°00' W 075°04'0 0.0
2017-Sep-12 01:01N 40°00' W 075°04'0 0.0
2017-Sep-12 00:31N 40°00' W 075°04'0 0.0
2017-Sep-12 00:00N 40°00' W 075°04'0 0.0
2017-Sep-11 23:30N 40°00' W 075°04'0 0.0
2017-Sep-11 23:00N 40°00' W 075°04'0 0.0
2017-Sep-11 22:31N 40°00' W 075°04'1 2.4
2017-Sep-11 22:01N 39°59' W 075°04'4 8.1
2017-Sep-11 21:30N 39°56' W 075°08'4 7.2
2017-Sep-11 21:00N 39°53' W 075°10'5 9.2
2017-Sep-11 20:31N 39°51' W 075°15'3 6.4
2017-Sep-11 20:01N 39°51' W 075°20'510.1
2017-Sep-11 19:30N 39°48' W 075°25'5 9.2
2017-Sep-11 19:00N 39°45' W 075°29'3 7.0
2017-Sep-11 18:31N 39°42' W 075°31'5 9.4
2017-Sep-11 18:01N 39°38' W 075°34'4 8.4
2017-Sep-11 17:30N 39°34' W 075°33'3 6.2
2017-Sep-11 17:00N 39°33' W 075°38'4 8.6
2017-Sep-11 16:30N 39°33' W 075°43'4 8.7
2017-Sep-11 16:00N 39°32' W 075°49'4 8.7
2017-Sep-11 15:30N 39°31' W 075°54'5 9.6
2017-Sep-11 15:00N 39°28' W 075°59'4 8.8
2017-Sep-11 14:30N 39°24' W 076°03'5 9.2
2017-Sep-11 14:00N 39°22' W 076°08'5 9.1
2017-Sep-11 13:30N 39°19' W 076°13'4 8.3
2017-Sep-11 13:00N 39°15' W 076°14'4 8.5
2017-Sep-11 12:30N 39°11' W 076°16'4 8.4
2017-Sep-11 12:00N 39°08' W 076°19'4 8.4
2017-Sep-11 11:30N 39°04' W 076°21'4 8.6
2017-Sep-11 11:00N 38°60' W 076°23'4 8.5
2017-Sep-11 10:30N 38°56' W 076°24'3 7.0
2017-Sep-11 10:01N 38°52' W 076°25'4 8.2
2017-Sep-11 09:30N 38°49' W 076°27'15 8.3
2017-Sep-11 07:42N 38°34' W 076°27'12 8.4
2017-Sep-11 06:18N 38°23' W 076°21'11 8.3
2017-Sep-11 05:00N 38°12' W 076°17'4 8.4
2017-Sep-11 04:29N 38°08' W 076°16'4 8.4
2017-Sep-11 04:00N 38°04' W 076°15'  
Track history (hours):
 
Tides and Currents Weather Stations Pressure Air Temp Water Temp Dewpoint Dewpoint Depression Visibility Wind Speed Wind Dir Waves Ship Positions

Sea Robin

Owner: Kirby Offshore Marine, LLC, Staten Island, NY. More information available from US FCC via Universal Licensing System and Coast Guard Vessel Documentation Center.

Last reported at 2017-Sep-20 01:59 UTC. Time now 2017-Sep-20 02:05 UTC.
Position N 36°57' W 076°22'.

Length 32 m; draft 5 m.

Type: Tow > 200 m length. MMSI: 366836950.

Date/timePositionNaut miles runAvg speedWind from/ knotsBaromVisibWave heightAir tempDewpointWater temp
2017-Sep-20 01:59N 36°57' W 076°22'1 1.3
2017-Sep-20 01:14N 36°57' W 076°21'0 0.3
2017-Sep-20 00:59N 36°58' W 076°21'8 4.1
2017-Sep-19 23:02N 37°00' W 076°11'0 4.1
2017-Sep-19 22:59N 37°00' W 076°11'2 4.1
2017-Sep-19 22:30N 37°01' W 076°09'65 5.8
2017-Sep-19 11:19N 38°06' W 076°15'2 6.1
2017-Sep-19 10:59N 38°08' W 076°16'8 5.4
2017-Sep-19 09:31N 38°15' W 076°18'0 4.4
2017-Sep-19 09:30N 38°15' W 076°19'2 4.4
2017-Sep-19 08:58N 38°18' W 076°19'2 4.1
2017-Sep-19 08:29N 38°19' W 076°20'2 3.9
2017-Sep-19 07:57N 38°22' W 076°21'2 3.8
2017-Sep-19 07:29N 38°23' W 076°21'1 2.8
2017-Sep-19 06:57N 38°25' W 076°22'2 3.7
2017-Sep-19 06:30N 38°23' W 076°21'2 3.7
2017-Sep-19 05:57N 38°21' W 076°21'2 3.8
2017-Sep-19 05:27N 38°19' W 076°20'2 3.6
2017-Sep-19 04:59N 38°18' W 076°19'2 3.5
2017-Sep-19 04:30N 38°16' W 076°19'2 3.6
2017-Sep-19 04:00N 38°14' W 076°18'2 3.6
2017-Sep-19 03:27N 38°12' W 076°17'4 3.6
2017-Sep-19 02:19N 38°08' W 076°16'1 3.4
2017-Sep-19 02:00N 38°07' W 076°16'2 3.4
2017-Sep-19 01:28N 38°06' W 076°15'2 3.2
2017-Sep-19 00:58N 38°04' W 076°15'2 3.1
2017-Sep-19 00:26N 38°02' W 076°14'1 3.2
2017-Sep-18 23:59N 38°01' W 076°14'36 5.7
2017-Sep-18 17:43N 38°35' W 076°27'2 5.8
2017-Sep-18 17:18N 38°38' W 076°27'2 5.8
2017-Sep-18 16:58N 38°39' W 076°27'3 5.9
2017-Sep-18 16:30N 38°42' W 076°28'8 5.1
2017-Sep-18 14:56N 38°50' W 076°26'4 7.6
2017-Sep-18 14:28N 38°53' W 076°24'4 7.9
2017-Sep-18 13:59N 38°57' W 076°24'4 7.8
2017-Sep-18 13:30N 39°01' W 076°22'4 7.3
2017-Sep-18 13:00N 39°04' W 076°21'3 6.6
2017-Sep-18 12:30N 39°07' W 076°19'3 6.2
2017-Sep-18 12:00N 39°10' W 076°18'3 6.2
2017-Sep-18 11:27N 39°13' W 076°15'2 5.6
2017-Sep-18 11:00N 39°15' W 076°14'3 5.4
2017-Sep-18 10:30N 39°18' W 076°13'2 5.0
2017-Sep-18 10:00N 39°20' W 076°12'2 4.8
2017-Sep-18 09:30N 39°21' W 076°09'2 5.0
2017-Sep-18 09:00N 39°23' W 076°06'3 5.3
2017-Sep-18 08:30N 39°24' W 076°03'3 5.7
2017-Sep-18 08:00N 39°26' W 076°01'3 6.2
2017-Sep-18 07:30N 39°28' W 075°58'3 6.6
2017-Sep-18 07:00N 39°30' W 075°55'4 7.1
2017-Sep-18 06:30N 39°32' W 075°51'4 7.4
2017-Sep-18 06:00N 39°32' W 075°46'4 7.7
2017-Sep-18 05:30N 39°33' W 075°41'4 7.6
2017-Sep-18 05:00N 39°33' W 075°36'3 5.2
2017-Sep-18 04:30N 39°35' W 075°33'3 6.2
2017-Sep-18 04:01N 39°38' W 075°34'3 6.0
2017-Sep-18 03:30N 39°40' W 075°32'3 5.4
2017-Sep-18 03:01N 39°43' W 075°31'3 5.2
2017-Sep-18 02:30N 39°45' W 075°29'2 4.6
2017-Sep-18 02:00N 39°47' W 075°28'2 4.7
2017-Sep-18 01:30N 39°48' W 075°25'2 4.6
2017-Sep-18 01:00N 39°50' W 075°22'2 4.0
2017-Sep-18 00:30N 39°51' W 075°20'2 4.6
2017-Sep-18 00:00N 39°51' W 075°17'3 5.1
2017-Sep-17 23:30N 39°52' W 075°14'3 6.5
2017-Sep-17 23:00N 39°53' W 075°10'3 5.9
2017-Sep-17 22:30N 39°55' W 075°08'3 6.7
2017-Sep-17 22:00N 39°58' W 075°06'3 5.2
2017-Sep-17 21:31N 39°60' W 075°04'0 0.1
2017-Sep-17 21:00N 40°00' W 075°04'0 0.0
2017-Sep-17 20:30N 40°00' W 075°04'0 0.0
2017-Sep-17 20:00N 40°00' W 075°04'0 0.0
2017-Sep-17 19:28N 40°00' W 075°04'0 0.0
2017-Sep-17 18:58N 40°00' W 075°04'0 0.0
2017-Sep-17 18:28N 40°00' W 075°04'0 0.0
2017-Sep-17 17:58N 40°00' W 075°04'0 0.0
2017-Sep-17 17:28N 40°00' W 075°04'0 0.0
2017-Sep-17 16:58N 40°00' W 075°04'0 0.0
2017-Sep-17 16:28N 40°00' W 075°04'0 0.0
2017-Sep-17 15:58N 40°00' W 075°04'0 0.0
2017-Sep-17 15:28N 40°00' W 075°04'0 0.0
2017-Sep-17 14:58N 40°00' W 075°04'0 0.0
2017-Sep-17 14:28N 40°00' W 075°04'0 0.0
2017-Sep-17 13:58N 40°00' W 075°04'0 0.0
2017-Sep-17 13:28N 40°00' W 075°04'0 0.0
2017-Sep-17 12:58N 40°00' W 075°04'0 0.0
2017-Sep-17 12:28N 40°00' W 075°04'0 0.0
2017-Sep-17 11:58N 40°00' W 075°04'0 0.0
2017-Sep-17 11:28N 40°00' W 075°04'0 0.0
2017-Sep-17 10:58N 40°00' W 075°04'0 0.0
2017-Sep-17 10:28N 40°00' W 075°04'0 0.0
2017-Sep-17 09:58N 40°00' W 075°04'0 0.0
2017-Sep-17 09:28N 40°00' W 075°04'0 0.0
2017-Sep-17 08:58N 40°00' W 075°04'0 0.0
2017-Sep-17 08:28N 40°00' W 075°04'0 0.0
2017-Sep-17 07:58N 40°00' W 075°04'0 0.0
2017-Sep-17 07:28N 40°00' W 075°04'0 0.0
2017-Sep-17 06:58N 40°00' W 075°04'0 0.0
2017-Sep-17 06:28N 40°00' W 075°04'0 0.0
2017-Sep-17 05:58N 40°00' W 075°04'0 0.0
2017-Sep-17 05:28N 40°00' W 075°04'0 0.0
2017-Sep-17 04:58N 40°00' W 075°04'0 0.0
2017-Sep-16 22:52N 40°00' W 075°04'0 0.0
2017-Sep-16 22:28N 40°00' W 075°04'0 0.0
2017-Sep-16 21:58N 40°00' W 075°04'0 0.0
2017-Sep-16 21:28N 40°00' W 075°04'0 0.0
2017-Sep-16 20:58N 40°00' W 075°04'0 0.0
2017-Sep-16 20:28N 40°00' W 075°04'0 0.0
2017-Sep-16 19:58N 40°00' W 075°04'0 0.0
2017-Sep-16 19:28N 40°00' W 075°04'0 0.0
2017-Sep-16 18:58N 40°00' W 075°04'0 0.0
2017-Sep-16 18:28N 40°00' W 075°04'0 0.0
2017-Sep-16 17:58N 40°00' W 075°04'0 0.0
2017-Sep-16 17:28N 40°00' W 075°04'0 0.0
2017-Sep-16 16:58N 40°00' W 075°04'0 0.0
2017-Sep-16 16:28N 40°00' W 075°04'0 0.0
2017-Sep-16 15:58N 40°00' W 075°04'0 0.0
2017-Sep-16 15:28N 40°00' W 075°04'0 0.0
2017-Sep-16 14:58N 40°00' W 075°04'0 0.0
2017-Sep-16 14:28N 40°00' W 075°04'0 0.0
2017-Sep-16 13:58N 40°00' W 075°04'0 0.0
2017-Sep-16 13:28N 40°00' W 075°04'0 0.0
2017-Sep-16 12:58N 40°00' W 075°04'0 0.0
2017-Sep-16 12:28N 40°00' W 075°04'0 0.0
2017-Sep-16 11:55N 40°00' W 075°04'0 0.0
2017-Sep-16 11:28N 40°00' W 075°04'0 0.0
2017-Sep-16 10:58N 40°00' W 075°04'0 0.0
2017-Sep-16 10:28N 40°00' W 075°04'0 0.0
2017-Sep-16 09:58N 40°00' W 075°04'0 0.0
2017-Sep-16 09:28N 40°00' W 075°04'0 0.0
2017-Sep-16 08:58N 40°00' W 075°04'0 0.0
2017-Sep-16 08:25N 40°00' W 075°04'0 0.0
2017-Sep-16 07:58N 40°00' W 075°04'0 0.0
2017-Sep-16 07:28N 40°00' W 075°04'0 0.0
2017-Sep-16 06:58N 40°00' W 075°04'0 0.0
2017-Sep-16 06:28N 40°00' W 075°04'0 0.0
2017-Sep-16 05:58N 40°00' W 075°04'0 0.0
2017-Sep-16 05:28N 40°00' W 075°04'0 0.0
2017-Sep-16 04:58N 40°00' W 075°04'0 0.0
2017-Sep-16 04:28N 40°00' W 075°04'0 0.0
2017-Sep-16 03:55N 40°00' W 075°04'0 0.0
2017-Sep-16 03:28N 40°00' W 075°04'0 0.0
2017-Sep-16 02:58N 40°00' W 075°04'0 0.0
2017-Sep-16 02:28N 40°00' W 075°04'0 0.0
2017-Sep-16 01:58N 40°00' W 075°04'0 0.0
2017-Sep-16 01:28N 40°00' W 075°04'0 0.0
2017-Sep-16 00:58N 40°00' W 075°04'0 0.0
2017-Sep-16 00:28N 40°00' W 075°04'0 0.0
2017-Sep-15 23:58N 40°00' W 075°04'0 0.0
2017-Sep-15 23:28N 40°00' W 075°04'0 0.0
2017-Sep-15 22:58N 40°00' W 075°04'0 0.0
2017-Sep-15 22:28N 40°00' W 075°04'0 0.0
2017-Sep-15 21:58N 40°00' W 075°04'0 0.0
2017-Sep-15 21:28N 40°00' W 075°04'0 0.0
2017-Sep-15 20:58N 40°00' W 075°04'0 0.0
2017-Sep-15 20:28N 40°00' W 075°04'0 0.0
2017-Sep-15 19:58N 40°00' W 075°04'0 0.0
2017-Sep-15 19:28N 40°00' W 075°04'0 0.0
2017-Sep-15 18:58N 40°00' W 075°04'0 0.0
2017-Sep-15 18:28N 40°00' W 075°04'0 0.0
2017-Sep-15 17:58N 40°00' W 075°04'0 0.0
2017-Sep-15 17:28N 40°00' W 075°04'0 0.0
2017-Sep-15 16:58N 40°00' W 075°04'0 0.0
2017-Sep-15 16:28N 40°00' W 075°04'0 0.0
2017-Sep-15 15:58N 40°00' W 075°04'0 0.0
2017-Sep-15 15:28N 40°00' W 075°04'0 0.0
2017-Sep-15 14:58N 40°00' W 075°04'0 0.0
2017-Sep-15 14:28N 40°00' W 075°04'0 0.0
2017-Sep-15 13:58N 40°00' W 075°04'0 0.0
2017-Sep-15 13:28N 40°00' W 075°04'0 0.0
2017-Sep-14 12:24N 40°00' W 075°04'0 0.0
2017-Sep-14 12:00N 40°00' W 075°04'0 0.0
2017-Sep-14 11:30N 40°00' W 075°04'0 0.0
2017-Sep-14 11:00N 40°00' W 075°04'0 0.0
2017-Sep-14 10:30N 40°00' W 075°04'0 0.0
2017-Sep-14 10:00N 40°00' W 075°04'0 0.0
2017-Sep-14 09:30N 40°00' W 075°04'0 0.0
2017-Sep-14 09:00N 40°00' W 075°04'0 0.0
2017-Sep-14 08:30N 40°00' W 075°04'0 0.0
2017-Sep-14 08:00N 40°00' W 075°04'0 0.0
2017-Sep-14 07:30N 40°00' W 075°04'0 0.0
2017-Sep-14 07:00N 40°00' W 075°04'0 0.0
2017-Sep-14 06:30N 40°00' W 075°04'0 0.0
2017-Sep-14 06:00N 40°00' W 075°04'0 0.0
2017-Sep-14 05:30N 40°00' W 075°04'0 0.0
2017-Sep-14 05:00N 40°00' W 075°04'0 0.0
2017-Sep-14 04:30N 40°00' W 075°04'0 0.0
2017-Sep-14 04:00N 40°00' W 075°04'0 0.0
2017-Sep-14 03:30N 40°00' W 075°04'0 0.0
2017-Sep-14 03:00N 40°00' W 075°04'0 0.0
2017-Sep-14 02:30N 40°00' W 075°04'0 0.0
2017-Sep-14 02:00N 40°00' W 075°04'0 0.0
2017-Sep-14 01:30N 40°00' W 075°04'0 0.0
2017-Sep-14 01:00N 40°00' W 075°04'0 0.0
2017-Sep-14 00:30N 40°00' W 075°04'0 0.0
2017-Sep-14 00:00N 40°00' W 075°04'0 0.0
2017-Sep-13 23:30N 40°00' W 075°04'0 0.0
2017-Sep-13 23:00N 40°00' W 075°04'0 0.0
2017-Sep-13 22:30N 40°00' W 075°04'0 0.0
2017-Sep-13 22:00N 40°00' W 075°04'0 0.0
2017-Sep-13 21:30N 40°00' W 075°04'0 0.0
2017-Sep-13 21:00N 40°00' W 075°04'0 0.0
2017-Sep-13 20:30N 40°00' W 075°04'0 0.0
2017-Sep-13 20:00N 40°00' W 075°04'0 0.0
2017-Sep-13 19:30N 40°00' W 075°04'0 0.0
2017-Sep-13 18:54N 40°00' W 075°04'0 0.0
2017-Sep-13 18:30N 40°00' W 075°04'0 0.0
2017-Sep-13 18:00N 40°00' W 075°04'0 0.0
2017-Sep-13 17:30N 40°00' W 075°04'0 0.0
2017-Sep-13 17:00N 40°00' W 075°04'0 0.0
2017-Sep-13 16:30N 40°00' W 075°04'0 0.0
2017-Sep-13 16:00N 40°00' W 075°04'0 0.0
2017-Sep-13 15:30N 40°00' W 075°04'0 0.0
2017-Sep-13 15:00N 40°00' W 075°04'0 0.0
2017-Sep-13 14:31N 40°00' W 075°04'0 0.0
2017-Sep-13 14:00N 40°00' W 075°04'0 0.0
2017-Sep-13 13:30N 40°00' W 075°04'0 0.0
2017-Sep-13 13:00N 40°00' W 075°04'0 0.0
2017-Sep-13 12:31N 40°00' W 075°04'0 0.0
2017-Sep-13 12:00N 40°00' W 075°04'0 0.0
2017-Sep-13 11:30N 40°00' W 075°04'0 0.0
2017-Sep-13 11:00N 40°00' W 075°04'0 0.0
2017-Sep-13 10:31N 40°00' W 075°04'0 0.0
2017-Sep-13 10:01N 40°00' W 075°04'0 0.0
2017-Sep-13 09:30N 40°00' W 075°04'0 0.0
2017-Sep-13 09:00N 40°00' W 075°04'0 0.0
2017-Sep-13 08:31N 40°00' W 075°04'0 0.0
2017-Sep-13 08:00N 40°00' W 075°04'0 0.0
2017-Sep-13 07:31N 40°00' W 075°04'0 0.0
2017-Sep-13 07:01N 40°00' W 075°04'0 0.0
2017-Sep-13 06:31N 40°00' W 075°04'0 0.0
2017-Sep-13 06:00N 40°00' W 075°04'0 0.0
2017-Sep-13 05:30N 40°00' W 075°04'0 0.0
2017-Sep-13 05:01N 40°00' W 075°04'0 0.0
2017-Sep-13 04:30N 40°00' W 075°04'0 0.0
2017-Sep-13 04:00N 40°00' W 075°04'0 0.0
2017-Sep-13 03:30N 40°00' W 075°04'0 0.0
2017-Sep-13 03:00N 40°00' W 075°04'0 0.0
2017-Sep-13 02:30N 40°00' W 075°04'0 0.0
2017-Sep-13 02:00N 40°00' W 075°04'0 0.0
2017-Sep-13 01:31N 40°00' W 075°04'0 0.0
2017-Sep-13 01:00N 40°00' W 075°04'0 0.0
2017-Sep-13 00:30N 40°00' W 075°04'0 0.0
2017-Sep-13 00:00N 40°00' W 075°04'0 0.0
2017-Sep-12 23:30N 40°00' W 075°04'0 0.0
2017-Sep-12 23:01N 40°00' W 075°04'0 0.0
2017-Sep-12 22:31N 40°00' W 075°04'0 0.0
2017-Sep-12 22:00N 40°00' W 075°04'0 0.0
2017-Sep-12 21:31N 40°00' W 075°04'0 0.0
2017-Sep-12 21:00N 40°00' W 075°04'0 0.0
2017-Sep-12 20:31N 40°00' W 075°04'0 0.0
2017-Sep-12 20:00N 40°00' W 075°04'0 0.0
2017-Sep-12 19:31N 40°00' W 075°04'0 0.0
2017-Sep-12 19:01N 40°00' W 075°04'0 0.0
2017-Sep-12 18:31N 40°00' W 075°04'0 0.0
2017-Sep-12 18:01N 40°00' W 075°04'0 0.0
2017-Sep-12 17:31N 40°00' W 075°04'4 7.4
2017-Sep-12 17:00N 39°58' W 075°08'4 9.0
2017-Sep-12 16:30N 39°53' W 075°08'2 3.9
2017-Sep-12 16:01N 39°53' W 075°11'1 1.3
2017-Sep-12 15:30N 39°53' W 075°12'0 0.0
2017-Sep-12 15:00N 39°53' W 075°12'0 0.0
2017-Sep-12 14:31N 39°53' W 075°12'0 0.0
2017-Sep-12 14:01N 39°53' W 075°12'0 0.0
2017-Sep-12 13:30N 39°53' W 075°12'0 0.0
2017-Sep-12 13:01N 39°53' W 075°12'0 0.0
2017-Sep-12 12:30N 39°53' W 075°12'0 0.0
2017-Sep-12 09:15N 39°53' W 075°12'0 0.1
2017-Sep-12 09:00N 39°53' W 075°12'3 5.6
2017-Sep-12 08:30N 39°54' W 075°08'4 8.2
2017-Sep-12 08:00N 39°58' W 075°07'3 6.7
2017-Sep-12 07:30N 40°00' W 075°04'0 0.0
2017-Sep-12 07:00N 40°00' W 075°04'0 0.0
2017-Sep-12 06:30N 40°00' W 075°04'0 0.0
2017-Sep-12 06:00N 40°00' W 075°04'0 0.0
2017-Sep-12 05:30N 40°00' W 075°04'0 0.0
2017-Sep-12 05:00N 40°00' W 075°04'0 0.0
2017-Sep-12 04:30N 40°00' W 075°04'0 0.0
2017-Sep-12 04:00N 40°00' W 075°04'0 0.0
2017-Sep-12 03:31N 40°00' W 075°04'0 0.0
2017-Sep-12 03:01N 40°00' W 075°04'0 0.0
2017-Sep-12 02:31N 40°00' W 075°04'0 0.0
2017-Sep-12 02:00N 40°00' W 075°04'0 0.0
2017-Sep-12 01:31N 40°00' W 075°04'0 0.0
2017-Sep-12 01:01N 40°00' W 075°04'0 0.0
2017-Sep-12 00:31N 40°00' W 075°04'0 0.0
2017-Sep-12 00:00N 40°00' W 075°04'0 0.0
2017-Sep-11 23:30N 40°00' W 075°04'0 0.0
2017-Sep-11 23:00N 40°00' W 075°04'0 0.0
2017-Sep-11 22:31N 40°00' W 075°04'1 2.4
2017-Sep-11 22:01N 39°59' W 075°04'4 8.1
2017-Sep-11 21:30N 39°56' W 075°08'4 7.2
2017-Sep-11 21:00N 39°53' W 075°10'5 9.2
2017-Sep-11 20:31N 39°51' W 075°15'3 6.4
2017-Sep-11 20:01N 39°51' W 075°20'510.1
2017-Sep-11 19:30N 39°48' W 075°25'5 9.2
2017-Sep-11 19:00N 39°45' W 075°29'3 7.0
2017-Sep-11 18:31N 39°42' W 075°31'5 9.4
2017-Sep-11 18:01N 39°38' W 075°34'4 8.4
2017-Sep-11 17:30N 39°34' W 075°33'3 6.2
2017-Sep-11 17:00N 39°33' W 075°38'4 8.6
2017-Sep-11 16:30N 39°33' W 075°43'4 8.7
2017-Sep-11 16:00N 39°32' W 075°49'4 8.7
2017-Sep-11 15:30N 39°31' W 075°54'5 9.6
2017-Sep-11 15:00N 39°28' W 075°59'4 8.8
2017-Sep-11 14:30N 39°24' W 076°03'5 9.2
2017-Sep-11 14:00N 39°22' W 076°08'5 9.1
2017-Sep-11 13:30N 39°19' W 076°13'4 8.3
2017-Sep-11 13:00N 39°15' W 076°14'4 8.5
2017-Sep-11 12:30N 39°11' W 076°16'4 8.4
2017-Sep-11 12:00N 39°08' W 076°19'4 8.4
2017-Sep-11 11:30N 39°04' W 076°21'4 8.6
2017-Sep-11 11:00N 38°60' W 076°23'4 8.5
2017-Sep-11 10:30N 38°56' W 076°24'3 7.0
2017-Sep-11 10:01N 38°52' W 076°25'4 8.2
2017-Sep-11 09:30N 38°49' W 076°27'15 8.3
2017-Sep-11 07:42N 38°34' W 076°27'12 8.4
2017-Sep-11 06:18N 38°23' W 076°21'11 8.3
2017-Sep-11 05:00N 38°12' W 076°17'4 8.4
2017-Sep-11 04:29N 38°08' W 076°16'4 8.4
2017-Sep-11 04:00N 38°04' W 076°15'  

Dump ship's entire track history